Time;durP1;ratioP1;P1;durP2;ratioP2;P2;SDS_P1;SDS_P2;PMS_P1;PMS_P2;Temp;Humidity;BMP_temperature;BMP_pressure;BME280_temperature;BME280_humidity;BME280_pressure;Samples;Min_cycle;Max_cycle;Signal;HPM_P1;HPM_P2
2022/08/30 00:03:26;;;;;;;6.50;4.63;;;17.80;76.60;;;;;;5001718;28;20488;-63
2022/08/30 00:05:52;;;;;;;8.07;4.90;;;17.80;77.40;;;;;;5011908;28;20488;-62
2022/08/30 00:08:20;;;;;;;4.83;4.30;;;17.80;77.40;;;;;;5013628;28;20870;-62
2022/08/30 00:10:47;;;;;;;9.67;4.73;;;17.70;78.10;;;;;;5011961;28;20843;-62
2022/08/30 00:13:15;;;;;;;7.80;5.47;;;17.70;78.00;;;;;;5008142;28;20931;-62
2022/08/30 00:15:43;;;;;;;6.73;4.40;;;17.70;77.30;;;;;;5004651;28;20567;-61
2022/08/30 00:18:09;;;;;;;6.10;5.07;;;17.70;78.00;;;;;;5011746;28;20472;-63
2022/08/30 00:20:37;;;;;;;6.20;3.93;;;17.70;77.40;;;;;;5013155;28;20481;-62
2022/08/30 00:23:05;;;;;;;5.70;4.70;;;17.70;77.20;;;;;;5010683;28;20963;-62
2022/08/30 00:25:31;;;;;;;6.27;3.80;;;17.70;77.00;;;;;;5008314;28;20836;-63
2022/08/30 00:27:58;;;;;;;22.20;5.00;;;17.60;77.40;;;;;;5013108;28;20483;-62
2022/08/30 00:30:26;;;;;;;5.63;4.70;;;17.60;77.30;;;;;;5012861;28;20568;-62
2022/08/30 00:32:53;;;;;;;6.20;4.20;;;17.60;78.20;;;;;;5012421;28;20862;-62
2022/08/30 00:35:21;;;;;;;6.13;4.53;;;17.60;78.30;;;;;;4999118;28;20505;-63
2022/08/30 00:37:49;;;;;;;8.07;4.37;;;17.50;78.20;;;;;;5005231;28;20485;-63
2022/08/30 00:40:19;;;;;;;5.27;4.40;;;17.50;78.40;;;;;;5012333;28;20587;-63
2022/08/30 00:42:46;;;;;;;8.93;4.37;;;17.50;78.30;;;;;;4993055;28;20829;-62
2022/08/30 00:45:15;;;;;;;8.07;4.53;;;17.40;78.10;;;;;;5009011;28;20587;-63
2022/08/30 00:47:44;;;;;;;6.10;4.30;;;17.50;78.20;;;;;;5013334;28;20496;-62
2022/08/30 00:50:13;;;;;;;4.50;3.67;;;17.40;77.90;;;;;;5011063;28;20480;-62
2022/08/30 00:52:43;;;;;;;7.67;3.57;;;17.50;78.50;;;;;;4998695;28;20500;-62
2022/08/30 00:55:11;;;;;;;5.27;4.07;;;17.50;77.60;;;;;;5005092;28;20916;-62
2022/08/30 00:57:37;;;;;;;6.77;3.83;;;17.50;78.20;;;;;;5011254;28;20577;-62
2022/08/30 01:00:08;;;;;;;6.53;4.40;;;17.50;77.70;;;;;;5011197;28;20487;-62
2022/08/30 01:02:34;;;;;;;6.17;4.27;;;17.50;78.30;;;;;;5008934;28;20508;-62
2022/08/30 01:05:04;;;;;;;7.90;5.00;;;17.50;78.10;;;;;;5009753;28;20472;-62
2022/08/30 01:07:33;;;;;;;8.60;4.23;;;17.50;78.00;;;;;;4988223;28;20865;-62
2022/08/30 01:10:00;;;;;;;6.57;4.40;;;17.40;77.50;;;;;;5010574;28;20604;-62
2022/08/30 01:12:28;;;;;;;13.13;4.30;;;17.40;77.70;;;;;;5013644;28;20515;-62
2022/08/30 01:14:55;;;;;;;8.70;4.77;;;17.40;78.10;;;;;;5012739;28;20549;-63
2022/08/30 01:17:22;;;;;;;4.13;3.73;;;17.40;78.10;;;;;;5013510;28;20483;-62
2022/08/30 01:19:54;;;;;;;4.87;3.80;;;17.40;78.10;;;;;;5015090;28;20496;-62
2022/08/30 01:22:34;;;;;;;7.87;4.30;;;17.30;78.00;;;;;;5012746;28;20938;-62
2022/08/30 01:25:06;;;;;;;5.77;4.60;;;17.30;78.60;;;;;;5002822;28;20821;-62
2022/08/30 01:27:34;;;;;;;6.33;4.20;;;17.30;78.70;;;;;;5013349;28;20594;-62
2022/08/30 01:30:01;;;;;;;9.13;5.77;;;17.20;78.40;;;;;;5006826;28;20485;-62
2022/08/30 01:32:29;;;;;;;6.67;4.37;;;17.30;79.00;;;;;;5011493;28;20485;-62
2022/08/30 01:34:56;;;;;;;5.73;4.97;;;17.30;78.60;;;;;;5008675;28;20477;-62
2022/08/30 01:37:27;;;;;;;6.20;4.37;;;17.30;77.60;;;;;;5014052;28;20480;-63
2022/08/30 01:39:55;;;;;;;10.33;6.10;;;17.30;77.90;;;;;;4996811;28;20496;-63
2022/08/30 01:42:23;;;;;;;6.97;4.90;;;17.30;78.30;;;;;;4997242;28;20500;-63
2022/08/30 01:44:50;;;;;;;7.67;5.70;;;17.40;78.30;;;;;;5010364;28;21029;-62
2022/08/30 01:47:18;;;;;;;7.90;4.57;;;17.30;78.40;;;;;;5016923;28;20503;-62
2022/08/30 01:49:47;;;;;;;8.77;5.20;;;17.30;78.50;;;;;;5013842;28;20828;-62
2022/08/30 01:52:14;;;;;;;8.03;4.53;;;17.30;79.00;;;;;;5014860;28;20492;-62
2022/08/30 01:54:44;;;;;;;7.60;5.10;;;17.30;79.10;;;;;;4979783;28;20476;-63
2022/08/30 01:57:14;;;;;;;7.40;5.00;;;17.20;79.30;;;;;;4985093;28;20788;-62
2022/08/30 01:59:46;;;;;;;5.93;4.10;;;17.20;78.80;;;;;;5004319;28;20477;-62
2022/08/30 02:02:14;;;;;;;6.33;5.00;;;17.20;79.50;;;;;;4981400;28;20481;-63
2022/08/30 02:04:41;;;;;;;8.23;4.57;;;17.20;79.10;;;;;;4990870;28;20794;-62
2022/08/30 02:07:07;;;;;;;10.43;7.00;;;17.10;79.00;;;;;;5011441;28;20485;-62
2022/08/30 02:09:36;;;;;;;10.10;6.17;;;16.40;78.50;;;;;;5016542;28;20492;-62
2022/08/30 02:12:03;;;;;;;6.43;5.27;;;17.20;79.30;;;;;;5014759;28;20487;-62
2022/08/30 02:14:30;;;;;;;6.80;5.27;;;17.10;79.20;;;;;;5007557;28;20483;-63
2022/08/30 02:16:58;;;;;;;7.10;5.10;;;17.20;79.90;;;;;;5015244;28;20508;-62
2022/08/30 02:19:25;;;;;;;7.50;5.10;;;17.10;78.50;;;;;;5017321;28;20661;-62
2022/08/30 02:21:52;;;;;;;9.15;5.40;;;17.10;78.70;;;;;;5011724;28;20488;-63
2022/08/30 02:24:18;;;;;;;7.30;5.00;;;17.10;78.60;;;;;;5009795;28;20250;-62
2022/08/30 02:26:45;;;;;;;6.30;4.60;;;17.10;78.60;;;;;;5016610;28;20507;-63
2022/08/30 02:29:12;;;;;;;9.80;6.60;;;17.10;79.00;;;;;;5015938;28;20845;-63
2022/08/30 02:31:39;;;;;;;11.70;7.10;;;17.00;78.30;;;;;;5014980;28;21431;-62
2022/08/30 02:34:07;;;;;;;8.63;6.07;;;17.00;78.50;;;;;;5008407;28;20667;-63
2022/08/30 02:36:34;;;;;;;4.97;4.27;;;17.00;78.30;;;;;;5014251;28;20570;-63
2022/08/30 02:39:01;;;;;;;10.53;6.67;;;15.70;77.30;;;;;;5014155;28;21071;-64
2022/08/30 02:41:27;;;;;;;5.60;4.30;;;16.90;78.40;;;;;;5015067;28;20616;-62
2022/08/30 02:43:57;;;;;;;11.90;7.47;;;16.80;79.00;;;;;;4995401;28;20471;-62
2022/08/30 02:46:24;;;;;;;6.40;4.73;;;16.70;79.50;;;;;;5008931;28;20480;-62
2022/08/30 02:48:50;;;;;;;9.93;6.10;;;16.60;78.90;;;;;;5016146;28;20481;-62
2022/08/30 02:51:18;;;;;;;8.70;5.30;;;16.50;79.20;;;;;;5013755;28;20473;-63
2022/08/30 02:53:46;;;;;;;12.53;7.10;;;16.40;79.00;;;;;;5014283;28;20469;-63
2022/08/30 02:56:14;;;;;;;12.30;6.47;;;16.40;78.70;;;;;;5014460;28;20487;-62
2022/08/30 02:58:42;;;;;;;12.13;7.37;;;16.40;79.10;;;;;;5015730;28;20889;-62
2022/08/30 03:01:11;;;;;;;11.37;7.30;;;16.30;79.40;;;;;;5010622;28;20593;-62
2022/08/30 03:03:37;;;;;;;8.90;6.20;;;16.30;79.50;;;;;;5002509;28;20547;-62
2022/08/30 03:06:05;;;;;;;16.53;10.03;;;;;;;;;;5011810;28;20864;-62
2022/08/30 03:08:33;;;;;;;10.03;5.23;;;16.20;80.10;;;;;;4992387;28;20473;-63
2022/08/30 03:11:01;;;;;;;7.73;5.30;;;16.20;79.80;;;;;;5013263;28;20476;-62
2022/08/30 03:13:28;;;;;;;10.60;5.80;;;16.20;80.30;;;;;;5013570;28;20564;-62
2022/08/30 03:15:55;;;;;;;15.17;8.70;;;16.20;80.60;;;;;;5013398;28;20504;-62
2022/08/30 03:18:22;;;;;;;5.73;4.80;;;16.20;80.90;;;;;;5012629;28;20712;-62
2022/08/30 03:20:50;;;;;;;20.03;10.67;;;16.20;80.40;;;;;;4998845;28;21112;-62
2022/08/30 03:23:18;;;;;;;16.47;9.93;;;16.00;80.10;;;;;;5011194;28;20552;-63
2022/08/30 03:25:46;;;;;;;6.57;4.90;;;16.00;80.10;;;;;;5010087;28;20818;-62
2022/08/30 03:28:12;;;;;;;11.97;7.93;;;15.90;80.40;;;;;;5016082;28;20483;-62
2022/08/30 03:30:39;;;;;;;13.70;8.97;;;15.90;80.00;;;;;;5014294;28;20481;-62
2022/08/30 03:33:06;;;;;;;13.23;8.10;;;15.80;80.60;;;;;;5011531;28;20564;-63
2022/08/30 03:35:33;;;;;;;9.40;5.50;;;15.80;81.10;;;;;;5014044;28;20516;-61
2022/08/30 03:38:00;;;;;;;9.87;7.40;;;15.90;81.30;;;;;;5014552;28;20492;-63
2022/08/30 03:40:27;;;;;;;7.30;5.60;;;15.80;81.20;;;;;;5014239;28;20684;-62
2022/08/30 03:42:55;;;;;;;21.83;10.63;;;15.70;81.60;;;;;;5013567;28;20559;-62
2022/08/30 03:45:21;;;;;;;9.73;6.47;;;15.60;81.50;;;;;;5013426;28;20665;-61
2022/08/30 03:47:48;;;;;;;11.97;7.90;;;15.50;81.70;;;;;;5014065;28;20579;-62
2022/08/30 03:50:15;;;;;;;12.97;8.70;;;15.50;81.00;;;;;;5012971;28;20484;-62
2022/08/30 03:52:44;;;;;;;14.73;8.60;;;15.50;81.80;;;;;;5010972;28;20484;-62
2022/08/30 03:55:11;;;;;;;13.77;8.00;;;15.50;81.40;;;;;;5012269;28;21133;-62
2022/08/30 03:57:39;;;;;;;15.23;8.57;;;15.50;81.20;;;;;;5014098;28;20841;-62
2022/08/30 04:00:08;;;;;;;17.80;9.43;;;15.50;80.90;;;;;;5011522;28;20477;-63
2022/08/30 04:02:35;;;;;;;9.10;6.30;;;15.40;81.60;;;;;;5014831;28;21035;-62
2022/08/30 04:05:02;;;;;;;12.83;8.47;;;15.40;82.80;;;;;;5011503;28;20864;-61
2022/08/30 04:07:29;;;;;;;10.80;7.20;;;15.30;81.70;;;;;;5011531;28;20473;-62
2022/08/30 04:09:55;;;;;;;18.83;11.60;;;15.30;81.80;;;;;;5014233;28;20480;-61
2022/08/30 04:12:22;;;;;;;15.33;7.80;;;15.30;82.90;;;;;;5010015;28;20831;-62
2022/08/30 04:14:49;;;;;;;10.93;6.73;;;15.30;82.50;;;;;;5011816;28;20496;-62
2022/08/30 04:17:17;;;;;;;23.00;9.90;;;14.30;82.10;;;;;;5011722;28;20481;-62
2022/08/30 04:19:44;;;;;;;18.87;10.33;;;15.40;83.10;;;;;;5014018;28;20481;-62
2022/08/30 04:22:11;;;;;;;14.90;8.27;;;15.50;82.80;;;;;;4990461;28;20496;-63
2022/08/30 04:24:40;;;;;;;11.10;7.80;;;15.50;82.70;;;;;;5012562;28;20812;-61
2022/08/30 04:27:07;;;;;;;13.50;8.03;;;15.50;83.00;;;;;;5011477;28;20887;-62
2022/08/30 04:29:34;;;;;;;11.87;7.67;;;15.60;83.60;;;;;;5006949;28;21001;-62
2022/08/30 04:32:01;;;;;;;22.03;9.90;;;15.60;84.20;;;;;;5012059;28;20874;-62
2022/08/30 04:34:29;;;;;;;12.00;7.80;;;15.70;83.10;;;;;;5011443;28;20686;-63
2022/08/30 04:36:56;;;;;;;15.73;9.53;;;15.70;83.30;;;;;;5003091;28;20703;-62
2022/08/30 04:39:23;;;;;;;13.13;8.10;;;15.50;82.00;;;;;;5013542;28;20485;-63
2022/08/30 04:41:50;;;;;;;22.53;9.87;;;15.30;82.20;;;;;;5008979;28;20485;-62
2022/08/30 04:44:16;;;;;;;22.63;8.07;;;15.20;81.70;;;;;;5000554;28;20487;-62
2022/08/30 04:46:43;;;;;;;25.33;9.90;;;15.20;82.50;;;;;;5011457;28;20480;-61
2022/08/30 04:49:10;;;;;;;16.20;8.37;;;15.20;83.30;;;;;;5013350;28;20657;-63
2022/08/30 04:51:38;;;;;;;16.20;8.37;;;15.20;83.30;;;;;;5012432;28;20539;-62
2022/08/30 04:54:05;;;;;;;24.03;12.13;;;15.10;83.70;;;;;;5010304;28;20484;-64
2022/08/30 04:56:32;;;;;;;18.70;9.00;;;15.20;84.60;;;;;;5012080;28;20516;-61
2022/08/30 04:58:59;;;;;;;19.40;11.43;;;15.20;84.60;;;;;;5000703;28;20754;-64
2022/08/30 05:01:29;;;;;;;19.50;9.27;;;15.20;84.90;;;;;;4998412;28;20476;-62
2022/08/30 05:03:57;;;;;;;24.50;12.30;;;15.40;84.60;;;;;;4998319;28;20748;-63
2022/08/30 05:06:27;;;;;;;16.00;9.40;;;15.50;84.50;;;;;;5012072;28;20485;-61
2022/08/30 05:08:55;;;;;;;26.63;10.57;;;15.50;83.90;;;;;;5011727;28;20849;-62
2022/08/30 05:11:23;;;;;;;18.07;9.83;;;15.70;84.10;;;;;;5011419;28;20492;-62
2022/08/30 05:13:50;;;;;;;18.73;10.63;;;15.70;84.30;;;;;;5006675;28;20500;-60
2022/08/30 05:16:18;;;;;;;21.37;11.50;;;15.70;84.20;;;;;;5004057;28;20492;-63
2022/08/30 05:18:45;;;;;;;16.87;9.40;;;15.80;84.10;;;;;;5008128;28;20580;-62
2022/08/30 05:21:15;;;;;;;17.20;8.77;;;15.80;85.30;;;;;;5010684;28;20806;-63
2022/08/30 05:23:43;;;;;;;18.17;10.20;;;15.80;85.70;;;;;;5006554;28;20882;-62
2022/08/30 05:26:14;;;;;;;18.53;9.37;;;15.90;85.80;;;;;;4974841;28;20498;-62
2022/08/30 05:28:41;;;;;;;15.80;9.37;;;16.20;86.00;;;;;;5000617;28;20837;-61
2022/08/30 05:31:14;;;;;;;17.70;9.37;;;15.10;84.40;;;;;;5002951;28;20567;-62
2022/08/30 05:33:41;;;;;;;12.30;7.53;;;16.10;85.30;;;;;;5011502;28;20865;-62
2022/08/30 05:36:09;;;;;;;13.57;8.40;;;16.30;84.50;;;;;;5013177;28;21130;-60
2022/08/30 05:38:36;;;;;;;16.67;8.20;;;16.30;85.10;;;;;;5013080;28;20528;-61
2022/08/30 05:41:03;;;;;;;27.13;12.20;;;16.40;85.00;;;;;;5010127;28;20531;-61
2022/08/30 05:43:31;;;;;;;11.80;7.33;;;16.40;85.20;;;;;;5005887;28;20729;-62
2022/08/30 05:46:00;;;;;;;16.60;10.10;;;16.60;84.90;;;;;;5011772;28;20869;-62
2022/08/30 05:48:26;;;;;;;12.80;7.67;;;16.60;84.80;;;;;;5000189;28;22122;-61
2022/08/30 05:51:02;;;;;;;16.30;9.63;;;16.70;84.50;;;;;;5005491;28;20497;-62
2022/08/30 05:53:29;;;;;;;17.20;9.03;;;16.70;84.80;;;;;;5010846;28;20572;-62
2022/08/30 05:55:56;;;;;;;16.77;11.03;;;16.80;85.20;;;;;;5001597;28;20476;-62
2022/08/30 05:58:23;;;;;;;16.37;9.37;;;16.80;85.00;;;;;;5011784;28;20498;-61
2022/08/30 06:00:51;;;;;;;15.03;9.50;;;16.80;85.60;;;;;;5011394;28;20983;-60
2022/08/30 06:03:17;;;;;;;20.97;12.50;;;17.00;84.50;;;;;;5001931;28;20488;-61
2022/08/30 06:05:44;;;;;;;14.40;7.93;;;17.00;84.70;;;;;;5013001;28;20858;-62
2022/08/30 06:08:11;;;;;;;17.40;9.87;;;17.10;85.10;;;;;;5012835;28;20489;-62
2022/08/30 06:10:37;;;;;;;16.33;9.03;;;17.20;85.00;;;;;;5003096;28;20495;-62
2022/08/30 06:13:04;;;;;;;17.80;9.37;;;17.40;83.90;;;;;;5010922;28;20472;-62
2022/08/30 06:15:31;;;;;;;9.17;6.60;;;17.40;83.60;;;;;;5013393;28;20943;-62
2022/08/30 06:17:59;;;;;;;13.23;6.97;;;17.60;83.10;;;;;;5012089;28;20485;-62
2022/08/30 06:20:26;;;;;;;17.33;8.47;;;17.60;83.40;;;;;;5011310;28;21495;-62
2022/08/30 06:22:53;;;;;;;14.40;9.17;;;17.90;82.50;;;;;;5013921;28;20493;-63
2022/08/30 06:25:20;;;;;;;17.40;8.93;;;18.10;82.60;;;;;;5014404;28;20949;-62
2022/08/30 06:27:47;;;;;;;15.03;8.97;;;18.20;82.60;;;;;;4996925;28;20499;-62
2022/08/30 06:30:14;;;;;;;26.40;15.53;;;18.50;82.10;;;;;;5004259;28;21043;-62
2022/08/30 06:32:41;;;;;;;12.63;7.13;;;18.50;82.90;;;;;;5006314;28;20468;-62
2022/08/30 06:35:10;;;;;;;17.17;9.63;;;18.90;81.30;;;;;;5007855;28;20503;-62
2022/08/30 06:37:37;;;;;;;10.00;6.40;;;19.20;80.80;;;;;;5004416;28;20488;-63
2022/08/30 06:40:05;;;;;;;19.37;10.27;;;19.30;80.30;;;;;;5011316;28;20556;-63
2022/08/30 06:42:33;;;;;;;15.00;8.97;;;19.50;79.20;;;;;;4996453;28;20496;-62
2022/08/30 06:45:00;;;;;;;14.50;10.00;;;19.80;79.10;;;;;;5008731;28;20817;-64
2022/08/30 06:47:28;;;;;;;14.10;6.83;;;20.00;78.30;;;;;;5011718;28;20476;-62
2022/08/30 06:49:55;;;;;;;18.33;9.70;;;20.30;77.30;;;;;;5009592;28;20633;-62
2022/08/30 06:52:23;;;;;;;15.40;7.07;;;20.60;77.00;;;;;;5005201;28;20492;-63
2022/08/30 06:54:50;;;;;;;16.17;8.67;;;21.40;74.50;;;;;;5007466;28;20715;-64
2022/08/30 06:57:17;;;;;;;8.60;6.03;;;22.00;73.40;;;;;;5009765;28;20480;-63
2022/08/30 06:59:43;;;;;;;8.83;5.93;;;22.20;73.20;;;;;;5011660;28;21017;-64
2022/08/30 07:02:10;;;;;;;19.73;8.10;;;22.90;71.50;;;;;;5010627;28;20838;-64
2022/08/30 07:04:37;;;;;;;7.93;6.10;;;23.40;70.30;;;;;;5009520;28;20476;-64
2022/08/30 07:07:04;;;;;;;7.60;6.20;;;23.70;69.20;;;;;;5008945;28;20571;-64
2022/08/30 07:09:34;;;;;;;8.53;5.43;;;23.70;69.80;;;;;;4999964;28;20712;-64
2022/08/30 07:12:02;;;;;;;25.23;15.97;;;24.20;68.10;;;;;;5010493;28;20896;-65
2022/08/30 07:14:29;;;;;;;17.17;12.47;;;24.40;67.90;;;;;;5008808;28;20612;-65
2022/08/30 07:16:56;;;;;;;21.43;13.57;;;24.90;65.20;;;;;;5009618;28;20846;-65
2022/08/30 07:19:21;;;;;;;24.77;12.10;;;24.90;65.70;;;;;;5011681;28;20484;-64
2022/08/30 07:21:49;;;;;;;21.23;11.07;;;25.30;64.90;;;;;;5008098;28;20671;-63
2022/08/30 07:24:16;;;;;;;20.33;11.60;;;25.30;64.20;;;;;;5009868;28;20428;-64
2022/08/30 07:26:47;;;;;;;14.70;9.63;;;25.70;63.90;;;;;;5010100;28;20492;-62
2022/08/30 07:29:15;;;;;;;13.40;7.70;;;25.70;64.40;;;;;;5010716;28;21062;-64
2022/08/30 07:31:42;;;;;;;11.80;6.70;;;25.90;63.20;;;;;;5010025;28;21000;-64
2022/08/30 07:34:09;;;;;;;11.43;7.70;;;26.10;64.00;;;;;;5008357;28;20556;-65
2022/08/30 07:36:38;;;;;;;10.23;4.80;;;26.30;62.90;;;;;;5009454;28;20477;-64
2022/08/30 07:39:06;;;;;;;10.97;6.83;;;26.30;62.70;;;;;;5012270;28;20480;-64
2022/08/30 07:41:37;;;;;;;8.10;5.60;;;26.30;63.00;;;;;;5010213;28;20840;-63
2022/08/30 07:44:05;;;;;;;11.27;5.53;;;26.20;62.50;;;;;;5009185;28;20480;-64
2022/08/30 07:46:32;;;;;;;9.47;6.20;;;26.10;62.20;;;;;;5008978;28;20881;-65
2022/08/30 07:49:00;;;;;;;8.83;6.53;;;26.00;63.10;;;;;;5011092;28;20484;-65
2022/08/30 07:51:28;;;;;;;5.60;4.80;;;25.80;63.90;;;;;;5010149;28;20479;-64
2022/08/30 07:53:55;;;;;;;6.73;5.47;;;25.70;64.30;;;;;;5008371;28;20862;-63
2022/08/30 07:56:23;;;;;;;8.63;6.20;;;25.60;64.50;;;;;;5008603;28;20473;-64
2022/08/30 07:58:50;;;;;;;10.27;5.70;;;25.60;64.70;;;;;;5006951;28;20484;-62
2022/08/30 08:01:19;;;;;;;12.23;7.30;;;25.60;64.20;;;;;;5010102;28;20488;-63
2022/08/30 08:03:46;;;;;;;8.00;5.13;;;25.60;64.00;;;;;;5008447;28;20976;-65
2022/08/30 08:06:15;;;;;;;11.93;6.17;;;25.60;64.50;;;;;;5009701;28;20469;-64
2022/08/30 08:08:42;;;;;;;7.87;6.73;;;25.60;64.70;;;;;;5012748;28;20488;-65
2022/08/30 08:11:11;;;;;;;8.37;6.20;;;25.80;64.70;;;;;;5011705;28;20837;-63
2022/08/30 08:13:39;;;;;;;13.40;6.57;;;25.80;65.30;;;;;;5002495;28;20484;-63
2022/08/30 08:16:06;;;;;;;8.33;6.57;;;25.90;65.40;;;;;;5012067;28;20842;-65
2022/08/30 08:18:34;;;;;;;6.20;4.07;;;26.10;64.60;;;;;;5008676;28;21096;-65
2022/08/30 08:21:02;;;;;;;9.73;6.53;;;26.10;64.70;;;;;;5008480;28;20484;-64
2022/08/30 08:23:28;;;;;;;8.07;5.13;;;26.40;63.90;;;;;;5006854;28;20485;-64
2022/08/30 08:25:55;;;;;;;6.37;4.23;;;26.70;64.00;;;;;;5010294;28;20481;-65
2022/08/30 08:28:22;;;;;;;11.23;5.23;;;26.90;62.70;;;;;;5009691;28;20476;-64
2022/08/30 08:30:49;;;;;;;6.43;5.53;;;27.30;63.50;;;;;;5009323;28;20507;-63
2022/08/30 08:33:17;;;;;;;9.60;5.83;;;27.40;63.50;;;;;;5006202;28;20488;-64
2022/08/30 08:35:46;;;;;;;7.40;5.80;;;27.60;63.00;;;;;;5010002;28;20804;-65
2022/08/30 08:38:13;;;;;;;10.20;6.10;;;28.10;60.80;;;;;;5010910;28;20487;-66
2022/08/30 08:40:47;;;;;;;6.17;4.80;;;28.00;61.30;;;;;;5009979;28;20491;-64
2022/08/30 08:43:17;;;;;;;7.60;6.80;;;28.10;61.10;;;;;;4985312;28;20488;-66
2022/08/30 08:45:55;;;;;;;5.83;5.33;;;28.30;60.90;;;;;;4989109;28;21261;-64
2022/08/30 08:48:34;;;;;;;6.43;4.70;;;28.40;60.50;;;;;;5006644;28;20484;-64
2022/08/30 08:53:56;;;;;;;6.67;5.73;;;28.50;60.80;;;;;;5006771;28;20476;-64
2022/08/30 08:56:23;;;;;;;6.83;4.30;;;28.50;60.70;;;;;;5010741;28;20472;-63
2022/08/30 08:58:54;;;;;;;6.20;5.53;;;28.50;60.50;;;;;;5009582;28;20480;-63
2022/08/30 09:01:23;;;;;;;7.33;6.60;;;28.60;61.20;;;;;;4990032;28;20793;-64
2022/08/30 09:03:50;;;;;;;7.27;5.33;;;28.70;61.90;;;;;;4992505;28;20728;-65
2022/08/30 09:06:32;;;;;;;8.00;6.17;;;28.80;61.00;;;;;;5007364;28;20447;-64
2022/08/30 09:08:58;;;;;;;6.90;4.80;;;28.90;60.50;;;;;;5009547;28;20469;-65
2022/08/30 09:11:28;;;;;;;6.70;6.00;;;30.20;61.10;;;;;;5009024;28;20480;-65
2022/08/30 09:13:55;;;;;;;5.73;5.23;;;29.30;61.00;;;;;;5006468;28;20500;-63
2022/08/30 09:16:51;;;;;;;5.80;4.83;;;29.40;59.20;;;;;;5008526;28;20472;-63
2022/08/30 09:19:38;;;;;;;10.20;5.90;;;29.60;59.50;;;;;;4999067;28;20443;-65
2022/08/30 09:22:16;;;;;;;5.37;4.90;;;29.80;59.30;;;;;;4995784;28;21037;-65
2022/08/30 09:24:45;;;;;;;4.97;4.47;;;29.90;58.60;;;;;;5008232;28;20538;-65
2022/08/30 09:27:19;;;;;;;5.60;5.10;;;30.00;59.10;;;;;;5008056;28;20477;-64
2022/08/30 09:29:55;;;;;;;8.27;5.33;;;30.20;58.60;;;;;;4996364;28;21069;-65
2022/08/30 09:32:35;;;;;;;8.00;5.50;;;30.30;58.50;;;;;;5008160;28;20480;-63
2022/08/30 09:35:04;;;;;;;5.20;4.70;;;30.40;59.10;;;;;;4996810;28;20483;-65
2022/08/30 09:37:38;;;;;;;6.07;5.20;;;30.50;58.90;;;;;;5006296;28;20719;-64
2022/08/30 09:40:11;;;;;;;6.20;5.60;;;30.60;58.10;;;;;;5008384;28;20705;-66
2022/08/30 09:42:38;;;;;;;7.67;5.90;;;30.70;58.00;;;;;;5008471;28;20534;-66
2022/08/30 09:45:18;;;;;;;11.47;6.00;;;30.80;59.10;;;;;;5007025;28;20707;-67
2022/08/30 09:47:45;;;;;;;8.83;5.07;;;30.90;59.20;;;;;;5006392;28;20578;-64
2022/08/30 09:50:14;;;;;;;6.33;4.60;;;31.10;58.50;;;;;;5008455;28;20455;-64
2022/08/30 09:53:08;;;;;;;6.60;6.00;;;31.30;58.30;;;;;;4998845;28;20454;-65
2022/08/30 09:55:49;;;;;;;5.40;4.70;;;31.50;57.80;;;;;;5007868;28;20473;-64
2022/08/30 09:58:27;;;;;;;6.43;5.70;;;31.50;57.30;;;;;;5008066;28;20483;-65
2022/08/30 10:01:04;;;;;;;5.40;4.90;;;31.70;57.60;;;;;;5007915;28;20683;-64
2022/08/30 10:03:36;;;;;;;5.73;5.23;;;31.80;57.30;;;;;;5003921;28;20471;-65
2022/08/30 10:06:10;;;;;;;5.60;5.10;;;31.80;57.60;;;;;;5011178;28;21066;-65
2022/08/30 10:09:12;;;;;;;5.70;5.10;;;32.00;56.50;;;;;;5011291;28;20556;-63
2022/08/30 10:11:47;;;;;;;5.87;4.90;;;31.90;56.30;;;;;;5009152;28;20962;-64
2022/08/30 10:14:46;;;;;;;6.50;5.00;;;31.90;57.10;;;;;;5012403;28;21345;-66
2022/08/30 10:17:19;;;;;;;9.73;6.13;;;31.80;56.70;;;;;;5012243;28;20476;-66
2022/08/30 10:20:00;;;;;;;6.87;4.93;;;31.90;57.30;;;;;;5013084;28;21345;-67
2022/08/30 10:22:31;;;;;;;5.83;5.23;;;32.10;57.50;;;;;;5012887;28;20829;-67
2022/08/30 10:25:05;;;;;;;5.33;4.83;;;32.10;57.00;;;;;;4997383;28;20462;-64
2022/08/30 10:27:38;;;;;;;4.93;4.53;;;32.40;56.20;;;;;;5012918;28;20479;-66
2022/08/30 10:30:10;;;;;;;4.70;4.30;;;32.40;57.10;;;;;;4997157;28;20872;-66
2022/08/30 10:32:43;;;;;;;4.67;4.27;;;32.50;56.10;;;;;;5011363;28;20554;-64
2022/08/30 10:35:13;;;;;;;5.80;5.13;;;32.60;56.40;;;;;;5007063;28;20451;-67
2022/08/30 10:37:45;;;;;;;5.63;4.73;;;32.40;54.70;;;;;;5008425;28;20464;-65
2022/08/30 10:43:08;;;;;;;6.13;5.53;;;32.40;55.40;;;;;;4988744;28;20542;-66
2022/08/30 10:45:40;;;;;;;5.37;4.87;;;32.20;55.20;;;;;;4994689;28;20462;-65
2022/08/30 10:48:16;;;;;;;5.07;4.63;;;32.20;56.40;;;;;;4972914;28;20470;-66
2022/08/30 10:50:48;;;;;;;5.03;4.50;;;32.50;56.00;;;;;;4994154;28;20848;-66
2022/08/30 10:53:18;;;;;;;5.30;4.90;;;32.30;54.70;;;;;;5001044;28;20491;-67
2022/08/30 10:55:51;;;;;;;5.30;4.80;;;32.40;55.50;;;;;;4991072;28;20468;-64
2022/08/30 10:58:19;;;;;;;6.40;3.83;;;32.40;54.30;;;;;;5007134;28;20793;-65
2022/08/30 11:00:57;;;;;;;6.50;5.90;;;32.40;55.20;;;;;;5011952;28;20970;-64
2022/08/30 11:03:53;;;;;;;4.77;4.20;;;32.20;55.20;;;;;;5013185;28;20659;-65
2022/08/30 11:06:24;;;;;;;4.70;4.30;;;32.40;54.40;;;;;;5014221;28;20482;-68
2022/08/30 11:09:12;;;;;;;6.83;5.80;;;32.40;54.90;;;;;;5003590;28;20439;-66
2022/08/30 11:12:05;;;;;;;12.60;5.30;;;32.70;54.10;;;;;;5007612;28;20813;-64
2022/08/30 11:14:32;;;;;;;6.90;5.17;;;32.50;55.00;;;;;;4990251;28;20652;-67
2022/08/30 11:17:01;;;;;;;6.47;5.90;;;32.80;55.10;;;;;;5002155;28;20802;-66
2022/08/30 11:19:35;;;;;;;4.93;4.43;;;33.00;55.10;;;;;;5013152;28;20826;-67
2022/08/30 11:22:13;;;;;;;5.00;4.50;;;33.20;56.10;;;;;;4994836;28;20472;-67
2022/08/30 11:25:02;;;;;;;6.50;5.90;;;33.50;53.70;;;;;;4982071;28;20556;-66
2022/08/30 11:27:42;;;;;;;5.00;4.50;;;33.70;53.90;;;;;;5011137;28;20463;-65
2022/08/30 11:30:42;;;;;;;5.53;5.03;;;34.00;54.70;;;;;;4984408;28;20484;-64
2022/08/30 11:33:30;;;;;;;7.77;4.80;;;34.30;53.80;;;;;;4991379;28;21056;-67
2022/08/30 11:35:57;;;;;;;5.93;4.97;;;34.20;53.70;;;;;;4986066;28;20458;-65
2022/08/30 11:38:57;;;;;;;6.30;5.70;;;34.00;54.00;;;;;;5005951;28;20477;-67
2022/08/30 11:41:31;;;;;;;6.30;4.00;;;34.40;53.80;;;;;;5000658;28;20786;-65
2022/08/30 11:44:25;;;;;;;6.40;5.10;;;34.40;54.10;;;;;;5009001;28;20830;-67
2022/08/30 11:46:53;;;;;;;8.47;5.00;;;34.60;52.50;;;;;;4984564;28;20988;-66
2022/08/30 11:49:38;;;;;;;5.23;4.83;;;34.50;53.20;;;;;;5002202;28;20459;-66
2022/08/30 11:52:41;;;;;;;5.67;5.17;;;34.80;53.00;;;;;;5004595;28;21046;-67
2022/08/30 11:55:40;;;;;;;5.23;4.73;;;34.50;51.70;;;;;;4996354;28;20457;-65
2022/08/30 11:58:25;;;;;;;7.37;5.13;;;34.40;51.60;;;;;;4989290;28;20459;-65
2022/08/30 12:01:16;;;;;;;5.47;4.93;;;34.20;53.10;;;;;;4968677;28;20840;-65
2022/08/30 12:03:43;;;;;;;5.73;5.23;;;34.40;53.80;;;;;;4992049;28;20455;-66
2022/08/30 12:06:12;;;;;;;6.53;5.60;;;34.80;53.20;;;;;;5013452;28;20469;-65
2022/08/30 12:08:54;;;;;;;4.87;4.47;;;34.90;53.00;;;;;;5008195;28;20485;-64
2022/08/30 12:11:54;;;;;;;5.90;5.30;;;35.10;52.50;;;;;;5011277;28;20916;-66
2022/08/30 12:14:43;;;;;;;4.47;4.13;;;35.40;51.70;;;;;;5004145;28;20444;-65
2022/08/30 12:20:17;;;;;;;5.10;4.70;;;35.40;51.10;;;;;;5000020;28;20497;-66
2022/08/30 12:22:44;;;;;;;5.60;4.93;;;35.40;52.00;;;;;;4987321;28;21196;-65
2022/08/30 12:25:25;;;;;;;5.00;4.50;;;35.50;51.70;;;;;;5007109;28;20492;-66
2022/08/30 12:28:07;;;;;;;5.17;4.70;;;35.60;52.10;;;;;;5001892;28;20484;-64
2022/08/30 12:30:37;;;;;;;5.53;5.03;;;35.30;50.00;;;;;;5012480;28;21054;-65
2022/08/30 12:33:06;;;;;;;6.20;5.70;;;35.30;51.30;;;;;;5009047;28;20779;-64
2022/08/30 12:35:34;;;;;;;6.00;5.00;;;34.10;51.10;;;;;;5009354;28;20483;-66
2022/08/30 12:38:04;;;;;;;5.87;5.37;;;33.90;51.50;;;;;;5012504;28;20466;-65
2022/08/30 12:40:33;;;;;;;5.63;4.73;;;33.80;52.30;;;;;;5000855;28;20550;-65
2022/08/30 12:43:04;;;;;;;7.20;5.43;;;33.50;53.10;;;;;;4992541;28;20454;-64
2022/08/30 12:45:38;;;;;;;5.60;5.10;;;33.80;52.80;;;;;;5005583;28;20541;-64
2022/08/30 12:48:08;;;;;;;5.27;4.77;;;33.80;51.90;;;;;;5004072;28;20503;-67
2022/08/30 12:50:37;;;;;;;5.27;4.87;;;34.10;53.10;;;;;;5005764;28;20855;-64
2022/08/30 12:53:07;;;;;;;5.50;4.80;;;34.20;51.20;;;;;;5005199;28;20472;-65
2022/08/30 12:55:49;;;;;;;4.50;4.17;;;33.90;52.00;;;;;;5000173;28;20493;-66
2022/08/30 12:58:16;;;;;;;6.60;5.20;;;33.90;51.60;;;;;;5011998;28;20448;-66
2022/08/30 13:00:45;;;;;;;5.07;4.63;;;34.00;52.90;;;;;;5007772;28;20902;-65
2022/08/30 13:03:32;;;;;;;5.50;5.00;;;34.00;51.90;;;;;;5006251;28;20493;-64
2022/08/30 13:05:59;;;;;;;6.10;5.60;;;34.10;52.00;;;;;;4982596;28;20447;-65
2022/08/30 13:08:33;;;;;;;8.10;4.77;;;33.70;51.90;;;;;;4984963;28;20447;-66
2022/08/30 13:11:02;;;;;;;5.37;4.97;;;33.50;52.10;;;;;;4983410;28;20481;-66